sensor_id;sensor_type;location;lat;lon;timestamp;temperature;humidity
21627;DHT22;10975;47.872;12.972;2022-11-06T00:02:21;8.20;99.90
21627;DHT22;10975;47.872;12.972;2022-11-06T00:04:47;8.10;99.90
21627;DHT22;10975;47.872;12.972;2022-11-06T00:07:14;8.10;99.90
21627;DHT22;10975;47.872;12.972;2022-11-06T00:09:41;8.20;99.90
21627;DHT22;10975;47.872;12.972;2022-11-06T00:12:07;8.20;99.90
21627;DHT22;10975;47.872;12.972;2022-11-06T00:14:34;8.20;99.90
21627;DHT22;10975;47.872;12.972;2022-11-06T00:17:01;8.20;99.90
21627;DHT22;10975;47.872;12.972;2022-11-06T00:19:27;8.20;99.90
21627;DHT22;10975;47.872;12.972;2022-11-06T00:21:54;8.20;99.90
21627;DHT22;10975;47.872;12.972;2022-11-06T00:24:21;8.20;99.90
21627;DHT22;10975;47.872;12.972;2022-11-06T00:26:47;8.20;99.90
21627;DHT22;10975;47.872;12.972;2022-11-06T00:29:20;8.20;99.90
21627;DHT22;10975;47.872;12.972;2022-11-06T00:31:47;8.20;99.90
21627;DHT22;10975;47.872;12.972;2022-11-06T00:34:14;8.20;99.90
21627;DHT22;10975;47.872;12.972;2022-11-06T00:36:41;8.20;99.90
21627;DHT22;10975;47.872;12.972;2022-11-06T00:39:08;8.30;99.90
21627;DHT22;10975;47.872;12.972;2022-11-06T00:41:36;8.20;99.90
21627;DHT22;10975;47.872;12.972;2022-11-06T00:44:03;8.20;99.90
21627;DHT22;10975;47.872;12.972;2022-11-06T00:46:30;8.20;99.90
21627;DHT22;10975;47.872;12.972;2022-11-06T00:48:57;8.30;99.90
21627;DHT22;10975;47.872;12.972;2022-11-06T00:51:25;8.20;99.90
21627;DHT22;10975;47.872;12.972;2022-11-06T00:53:53;8.20;99.90
21627;DHT22;10975;47.872;12.972;2022-11-06T00:56:21;8.20;99.90
21627;DHT22;10975;47.872;12.972;2022-11-06T00:58:48;8.20;99.90
21627;DHT22;10975;47.872;12.972;2022-11-06T01:01:19;8.20;99.90
21627;DHT22;10975;47.872;12.972;2022-11-06T01:03:47;8.10;99.90
21627;DHT22;10975;47.872;12.972;2022-11-06T01:06:18;8.10;99.90
21627;DHT22;10975;47.872;12.972;2022-11-06T01:08:45;8.10;99.90
21627;DHT22;10975;47.872;12.972;2022-11-06T01:11:14;8.10;99.90
21627;DHT22;10975;47.872;12.972;2022-11-06T01:13:41;8.00;99.90
21627;DHT22;10975;47.872;12.972;2022-11-06T01:16:09;8.00;99.90
21627;DHT22;10975;47.872;12.972;2022-11-06T01:18:36;8.00;99.90
21627;DHT22;10975;47.872;12.972;2022-11-06T01:21:07;8.00;99.90
21627;DHT22;10975;47.872;12.972;2022-11-06T01:23:34;8.10;99.90
21627;DHT22;10975;47.872;12.972;2022-11-06T01:26:02;8.00;99.90
21627;DHT22;10975;47.872;12.972;2022-11-06T01:28:29;8.00;99.90
21627;DHT22;10975;47.872;12.972;2022-11-06T01:31:00;8.10;99.90
21627;DHT22;10975;47.872;12.972;2022-11-06T01:33:27;8.00;99.90
21627;DHT22;10975;47.872;12.972;2022-11-06T01:35:54;8.00;99.90
21627;DHT22;10975;47.872;12.972;2022-11-06T01:38:20;8.00;99.90
21627;DHT22;10975;47.872;12.972;2022-11-06T01:40:47;8.10;99.90
21627;DHT22;10975;47.872;12.972;2022-11-06T01:43:18;8.10;99.90
21627;DHT22;10975;47.872;12.972;2022-11-06T01:45:52;8.10;99.90
21627;DHT22;10975;47.872;12.972;2022-11-06T01:48:21;8.10;99.90
21627;DHT22;10975;47.872;12.972;2022-11-06T01:50:50;8.10;99.90
21627;DHT22;10975;47.872;12.972;2022-11-06T01:53:17;8.00;99.90
21627;DHT22;10975;47.872;12.972;2022-11-06T01:55:45;8.10;99.90
21627;DHT22;10975;47.872;12.972;2022-11-06T01:58:14;8.10;99.90
21627;DHT22;10975;47.872;12.972;2022-11-06T02:00:41;8.10;99.90
21627;DHT22;10975;47.872;12.972;2022-11-06T02:03:08;8.10;99.90
21627;DHT22;10975;47.872;12.972;2022-11-06T02:05:38;8.10;99.90
21627;DHT22;10975;47.872;12.972;2022-11-06T02:08:06;8.10;99.90
21627;DHT22;10975;47.872;12.972;2022-11-06T02:10:33;8.10;99.90
21627;DHT22;10975;47.872;12.972;2022-11-06T02:15:44;8.10;99.90
21627;DHT22;10975;47.872;12.972;2022-11-06T02:18:18;8.10;99.90
21627;DHT22;10975;47.872;12.972;2022-11-06T02:20:52;8.20;99.90
21627;DHT22;10975;47.872;12.972;2022-11-06T02:28:52;8.20;99.90
21627;DHT22;10975;47.872;12.972;2022-11-06T02:31:23;8.20;99.90
21627;DHT22;10975;47.872;12.972;2022-11-06T02:33:54;8.10;99.90
21627;DHT22;10975;47.872;12.972;2022-11-06T02:36:24;8.10;99.90
21627;DHT22;10975;47.872;12.972;2022-11-06T02:38:54;8.20;99.90
21627;DHT22;10975;47.872;12.972;2022-11-06T02:41:22;8.10;99.90
21627;DHT22;10975;47.872;12.972;2022-11-06T02:43:52;8.10;99.90
21627;DHT22;10975;47.872;12.972;2022-11-06T02:46:28;8.10;99.90
21627;DHT22;10975;47.872;12.972;2022-11-06T02:49:07;8.10;99.90
21627;DHT22;10975;47.872;12.972;2022-11-06T02:51:36;8.20;99.90
21627;DHT22;10975;47.872;12.972;2022-11-06T02:54:04;8.20;99.90
21627;DHT22;10975;47.872;12.972;2022-11-06T02:56:38;8.20;99.90
21627;DHT22;10975;47.872;12.972;2022-11-06T02:59:14;8.20;99.90
21627;DHT22;10975;47.872;12.972;2022-11-06T03:01:46;8.20;99.90
21627;DHT22;10975;47.872;12.972;2022-11-06T03:04:18;8.20;99.90
21627;DHT22;10975;47.872;12.972;2022-11-06T03:06:49;8.10;99.90
21627;DHT22;10975;47.872;12.972;2022-11-06T03:09:18;8.10;99.90
21627;DHT22;10975;47.872;12.972;2022-11-06T03:11:49;8.00;99.90
21627;DHT22;10975;47.872;12.972;2022-11-06T03:14:26;7.90;99.90
21627;DHT22;10975;47.872;12.972;2022-11-06T03:19:31;7.80;99.90
21627;DHT22;10975;47.872;12.972;2022-11-06T03:24:41;7.60;99.90
21627;DHT22;10975;47.872;12.972;2022-11-06T03:27:14;7.50;99.90
21627;DHT22;10975;47.872;12.972;2022-11-06T03:29:52;7.50;99.90
21627;DHT22;10975;47.872;12.972;2022-11-06T03:32:26;7.40;99.90
21627;DHT22;10975;47.872;12.972;2022-11-06T03:34:54;7.40;99.90
21627;DHT22;10975;47.872;12.972;2022-11-06T03:37:35;7.40;99.90
21627;DHT22;10975;47.872;12.972;2022-11-06T03:40:05;7.40;99.90
21627;DHT22;10975;47.872;12.972;2022-11-06T03:42:34;7.30;99.90
21627;DHT22;10975;47.872;12.972;2022-11-06T03:45:02;7.30;99.90
21627;DHT22;10975;47.872;12.972;2022-11-06T03:47:32;7.20;99.90
21627;DHT22;10975;47.872;12.972;2022-11-06T03:50:04;7.20;99.90
21627;DHT22;10975;47.872;12.972;2022-11-06T03:52:34;7.20;99.90
21627;DHT22;10975;47.872;12.972;2022-11-06T03:55:05;7.10;99.90
21627;DHT22;10975;47.872;12.972;2022-11-06T03:57:44;7.10;99.90
21627;DHT22;10975;47.872;12.972;2022-11-06T04:00:12;7.00;99.90
21627;DHT22;10975;47.872;12.972;2022-11-06T04:02:40;7.00;99.90
21627;DHT22;10975;47.872;12.972;2022-11-06T04:05:10;7.00;99.90
21627;DHT22;10975;47.872;12.972;2022-11-06T04:07:40;6.90;99.90
21627;DHT22;10975;47.872;12.972;2022-11-06T04:10:09;6.90;99.90
21627;DHT22;10975;47.872;12.972;2022-11-06T04:12:55;7.00;99.90
21627;DHT22;10975;47.872;12.972;2022-11-06T04:15:44;7.00;99.90
21627;DHT22;10975;47.872;12.972;2022-11-06T04:18:14;6.90;99.90
21627;DHT22;10975;47.872;12.972;2022-11-06T04:20:47;6.90;99.90
21627;DHT22;10975;47.872;12.972;2022-11-06T04:23:33;6.90;99.90
21627;DHT22;10975;47.872;12.972;2022-11-06T04:26:09;6.80;99.90
21627;DHT22;10975;47.872;12.972;2022-11-06T04:37:08;6.60;99.90
21627;DHT22;10975;47.872;12.972;2022-11-06T04:39:42;6.50;99.90
21627;DHT22;10975;47.872;12.972;2022-11-06T04:44:40;6.40;99.90
21627;DHT22;10975;47.872;12.972;2022-11-06T04:47:08;6.30;99.90
21627;DHT22;10975;47.872;12.972;2022-11-06T04:49:37;6.30;99.90
21627;DHT22;10975;47.872;12.972;2022-11-06T04:52:05;6.20;99.90
21627;DHT22;10975;47.872;12.972;2022-11-06T04:54:32;6.20;99.90
21627;DHT22;10975;47.872;12.972;2022-11-06T04:57:00;6.10;99.90
21627;DHT22;10975;47.872;12.972;2022-11-06T04:59:27;6.10;99.90
21627;DHT22;10975;47.872;12.972;2022-11-06T05:01:55;6.10;99.90
21627;DHT22;10975;47.872;12.972;2022-11-06T05:04:22;6.00;99.90
21627;DHT22;10975;47.872;12.972;2022-11-06T05:06:49;6.00;99.90
21627;DHT22;10975;47.872;12.972;2022-11-06T05:09:16;6.00;99.90
21627;DHT22;10975;47.872;12.972;2022-11-06T05:11:42;5.90;99.90
21627;DHT22;10975;47.872;12.972;2022-11-06T05:14:09;5.90;99.90
21627;DHT22;10975;47.872;12.972;2022-11-06T05:16:36;5.90;99.90
21627;DHT22;10975;47.872;12.972;2022-11-06T05:19:03;5.90;99.90
21627;DHT22;10975;47.872;12.972;2022-11-06T05:21:29;5.90;99.90
21627;DHT22;10975;47.872;12.972;2022-11-06T05:24:15;5.80;99.90
21627;DHT22;10975;47.872;12.972;2022-11-06T05:26:41;5.80;99.90
21627;DHT22;10975;47.872;12.972;2022-11-06T05:29:09;5.70;99.90
21627;DHT22;10975;47.872;12.972;2022-11-06T05:31:36;5.60;99.90
21627;DHT22;10975;47.872;12.972;2022-11-06T05:34:02;5.60;99.90
21627;DHT22;10975;47.872;12.972;2022-11-06T05:36:29;5.50;99.90
21627;DHT22;10975;47.872;12.972;2022-11-06T05:38:56;5.50;99.90
21627;DHT22;10975;47.872;12.972;2022-11-06T05:41:22;5.50;99.90
21627;DHT22;10975;47.872;12.972;2022-11-06T05:43:49;5.50;99.90
21627;DHT22;10975;47.872;12.972;2022-11-06T05:46:16;5.50;99.90
21627;DHT22;10975;47.872;12.972;2022-11-06T05:49:02;5.40;99.90
21627;DHT22;10975;47.872;12.972;2022-11-06T05:51:31;5.40;99.90
21627;DHT22;10975;47.872;12.972;2022-11-06T05:53:58;5.30;99.90
21627;DHT22;10975;47.872;12.972;2022-11-06T05:56:24;5.20;99.90
21627;DHT22;10975;47.872;12.972;2022-11-06T05:58:51;5.20;99.90
21627;DHT22;10975;47.872;12.972;2022-11-06T06:01:18;5.20;99.90
21627;DHT22;10975;47.872;12.972;2022-11-06T06:03:44;5.20;99.90
21627;DHT22;10975;47.872;12.972;2022-11-06T06:06:11;5.20;99.90
21627;DHT22;10975;47.872;12.972;2022-11-06T06:08:38;5.10;99.90
21627;DHT22;10975;47.872;12.972;2022-11-06T06:11:05;5.10;99.90
21627;DHT22;10975;47.872;12.972;2022-11-06T06:13:34;5.10;99.90
21627;DHT22;10975;47.872;12.972;2022-11-06T06:16:01;5.00;99.90
21627;DHT22;10975;47.872;12.972;2022-11-06T06:18:28;5.00;99.90
21627;DHT22;10975;47.872;12.972;2022-11-06T06:20:58;5.00;99.90
21627;DHT22;10975;47.872;12.972;2022-11-06T06:23:24;5.00;99.90
21627;DHT22;10975;47.872;12.972;2022-11-06T06:25:51;5.00;99.90
21627;DHT22;10975;47.872;12.972;2022-11-06T06:28:18;5.00;99.90
21627;DHT22;10975;47.872;12.972;2022-11-06T06:30:44;5.00;99.90
21627;DHT22;10975;47.872;12.972;2022-11-06T06:33:11;5.00;99.90
21627;DHT22;10975;47.872;12.972;2022-11-06T06:35:37;5.00;99.90
21627;DHT22;10975;47.872;12.972;2022-11-06T06:38:04;4.90;99.90
21627;DHT22;10975;47.872;12.972;2022-11-06T06:40:31;4.90;99.90
21627;DHT22;10975;47.872;12.972;2022-11-06T06:42:57;4.90;99.90
21627;DHT22;10975;47.872;12.972;2022-11-06T06:45:24;4.90;99.90
21627;DHT22;10975;47.872;12.972;2022-11-06T06:47:51;4.90;99.90
21627;DHT22;10975;47.872;12.972;2022-11-06T06:50:18;4.80;99.90
21627;DHT22;10975;47.872;12.972;2022-11-06T06:52:45;4.80;99.90
21627;DHT22;10975;47.872;12.972;2022-11-06T06:55:12;4.80;99.90
21627;DHT22;10975;47.872;12.972;2022-11-06T06:57:39;4.90;99.90
21627;DHT22;10975;47.872;12.972;2022-11-06T07:00:06;4.90;99.90
21627;DHT22;10975;47.872;12.972;2022-11-06T07:02:33;4.90;99.90
21627;DHT22;10975;47.872;12.972;2022-11-06T07:05:00;4.90;99.90
21627;DHT22;10975;47.872;12.972;2022-11-06T07:07:26;5.00;99.90
21627;DHT22;10975;47.872;12.972;2022-11-06T07:09:53;5.00;99.90
21627;DHT22;10975;47.872;12.972;2022-11-06T07:12:20;5.10;99.90
21627;DHT22;10975;47.872;12.972;2022-11-06T07:14:46;5.00;99.90
21627;DHT22;10975;47.872;12.972;2022-11-06T07:17:13;5.00;99.90
21627;DHT22;10975;47.872;12.972;2022-11-06T07:19:40;5.10;99.90
21627;DHT22;10975;47.872;12.972;2022-11-06T07:22:06;5.10;99.90
21627;DHT22;10975;47.872;12.972;2022-11-06T07:24:33;5.20;99.90
21627;DHT22;10975;47.872;12.972;2022-11-06T07:27:00;5.10;99.90
21627;DHT22;10975;47.872;12.972;2022-11-06T07:29:26;5.20;99.90
21627;DHT22;10975;47.872;12.972;2022-11-06T07:31:53;5.20;99.90
21627;DHT22;10975;47.872;12.972;2022-11-06T07:34:19;5.30;99.90
21627;DHT22;10975;47.872;12.972;2022-11-06T07:36:46;5.30;99.90
21627;DHT22;10975;47.872;12.972;2022-11-06T07:39:13;5.30;99.90
21627;DHT22;10975;47.872;12.972;2022-11-06T07:41:39;5.30;99.90
21627;DHT22;10975;47.872;12.972;2022-11-06T07:44:06;5.40;99.90
21627;DHT22;10975;47.872;12.972;2022-11-06T07:46:33;5.40;99.90
21627;DHT22;10975;47.872;12.972;2022-11-06T07:48:59;5.50;99.90
21627;DHT22;10975;47.872;12.972;2022-11-06T07:51:26;5.60;99.90
21627;DHT22;10975;47.872;12.972;2022-11-06T07:53:53;5.70;99.90
21627;DHT22;10975;47.872;12.972;2022-11-06T07:56:19;5.80;99.90
21627;DHT22;10975;47.872;12.972;2022-11-06T07:58:46;5.90;99.90
21627;DHT22;10975;47.872;12.972;2022-11-06T08:01:13;5.90;99.90
21627;DHT22;10975;47.872;12.972;2022-11-06T08:03:44;6.00;99.90
21627;DHT22;10975;47.872;12.972;2022-11-06T08:06:11;6.10;99.90
21627;DHT22;10975;47.872;12.972;2022-11-06T08:08:38;6.20;99.90
21627;DHT22;10975;47.872;12.972;2022-11-06T08:11:05;6.30;99.90
21627;DHT22;10975;47.872;12.972;2022-11-06T08:13:32;6.40;99.90
21627;DHT22;10975;47.872;12.972;2022-11-06T08:16:10;6.40;99.90
21627;DHT22;10975;47.872;12.972;2022-11-06T08:18:38;6.50;99.90
21627;DHT22;10975;47.872;12.972;2022-11-06T08:21:04;6.60;99.90
21627;DHT22;10975;47.872;12.972;2022-11-06T08:23:32;6.60;99.90
21627;DHT22;10975;47.872;12.972;2022-11-06T08:26:00;6.60;99.90
21627;DHT22;10975;47.872;12.972;2022-11-06T08:28:27;6.70;99.90
21627;DHT22;10975;47.872;12.972;2022-11-06T08:30:54;6.70;99.90
21627;DHT22;10975;47.872;12.972;2022-11-06T08:33:21;6.80;99.90
21627;DHT22;10975;47.872;12.972;2022-11-06T08:35:48;6.80;99.90
21627;DHT22;10975;47.872;12.972;2022-11-06T08:38:15;6.90;99.90
21627;DHT22;10975;47.872;12.972;2022-11-06T08:40:42;6.90;99.90
21627;DHT22;10975;47.872;12.972;2022-11-06T08:43:12;7.00;99.90
21627;DHT22;10975;47.872;12.972;2022-11-06T08:45:40;7.00;99.90
21627;DHT22;10975;47.872;12.972;2022-11-06T08:48:07;7.10;99.90
21627;DHT22;10975;47.872;12.972;2022-11-06T08:50:35;7.10;99.90
21627;DHT22;10975;47.872;12.972;2022-11-06T08:53:02;7.20;99.90
21627;DHT22;10975;47.872;12.972;2022-11-06T08:55:30;7.20;99.90
21627;DHT22;10975;47.872;12.972;2022-11-06T08:57:56;7.20;99.90
21627;DHT22;10975;47.872;12.972;2022-11-06T09:00:23;7.30;99.90
21627;DHT22;10975;47.872;12.972;2022-11-06T09:02:50;7.40;99.90
21627;DHT22;10975;47.872;12.972;2022-11-06T09:05:17;7.40;99.90
21627;DHT22;10975;47.872;12.972;2022-11-06T09:07:43;7.50;99.90
21627;DHT22;10975;47.872;12.972;2022-11-06T09:10:10;7.50;99.90
21627;DHT22;10975;47.872;12.972;2022-11-06T09:12:37;7.60;99.90
21627;DHT22;10975;47.872;12.972;2022-11-06T09:15:03;7.70;99.90
21627;DHT22;10975;47.872;12.972;2022-11-06T09:17:30;7.70;99.90
21627;DHT22;10975;47.872;12.972;2022-11-06T09:19:57;7.70;99.90
21627;DHT22;10975;47.872;12.972;2022-11-06T09:22:24;7.80;99.90
21627;DHT22;10975;47.872;12.972;2022-11-06T09:24:50;7.90;99.90
21627;DHT22;10975;47.872;12.972;2022-11-06T09:27:30;7.90;99.90
21627;DHT22;10975;47.872;12.972;2022-11-06T09:29:57;8.00;99.90
21627;DHT22;10975;47.872;12.972;2022-11-06T09:32:23;8.10;99.90
21627;DHT22;10975;47.872;12.972;2022-11-06T09:34:50;8.10;99.90
21627;DHT22;10975;47.872;12.972;2022-11-06T09:37:17;8.20;99.90
21627;DHT22;10975;47.872;12.972;2022-11-06T09:39:43;8.30;99.90
21627;DHT22;10975;47.872;12.972;2022-11-06T09:42:18;8.30;99.90
21627;DHT22;10975;47.872;12.972;2022-11-06T09:47:16;8.40;99.90
21627;DHT22;10975;47.872;12.972;2022-11-06T09:49:48;8.40;99.90
21627;DHT22;10975;47.872;12.972;2022-11-06T09:52:21;8.50;99.90
21627;DHT22;10975;47.872;12.972;2022-11-06T09:54:55;8.50;99.90
21627;DHT22;10975;47.872;12.972;2022-11-06T09:59:56;8.60;99.90
21627;DHT22;10975;47.872;12.972;2022-11-06T10:04:51;8.70;99.90
21627;DHT22;10975;47.872;12.972;2022-11-06T10:07:31;8.80;99.90
21627;DHT22;10975;47.872;12.972;2022-11-06T10:09:59;8.80;99.90
21627;DHT22;10975;47.872;12.972;2022-11-06T10:12:34;8.80;99.90
21627;DHT22;10975;47.872;12.972;2022-11-06T10:15:15;8.80;99.90
21627;DHT22;10975;47.872;12.972;2022-11-06T10:20:20;8.90;99.90
21627;DHT22;10975;47.872;12.972;2022-11-06T10:25:20;8.90;99.90
21627;DHT22;10975;47.872;12.972;2022-11-06T10:30:23;9.00;99.90
21627;DHT22;10975;47.872;12.972;2022-11-06T10:40:32;9.30;99.90
21627;DHT22;10975;47.872;12.972;2022-11-06T10:45:46;9.50;99.90
21627;DHT22;10975;47.872;12.972;2022-11-06T10:48:23;9.50;99.90
21627;DHT22;10975;47.872;12.972;2022-11-06T10:53:55;9.50;99.90
21627;DHT22;10975;47.872;12.972;2022-11-06T10:56:31;9.60;99.90
21627;DHT22;10975;47.872;12.972;2022-11-06T10:59:01;9.60;99.90
21627;DHT22;10975;47.872;12.972;2022-11-06T11:01:28;9.60;99.90
21627;DHT22;10975;47.872;12.972;2022-11-06T11:03:55;9.70;99.90
21627;DHT22;10975;47.872;12.972;2022-11-06T11:06:21;9.70;99.90
21627;DHT22;10975;47.872;12.972;2022-11-06T11:08:49;9.80;99.90
21627;DHT22;10975;47.872;12.972;2022-11-06T11:13:46;9.80;99.90
21627;DHT22;10975;47.872;12.972;2022-11-06T11:16:14;9.90;99.90
21627;DHT22;10975;47.872;12.972;2022-11-06T11:18:44;9.90;99.90
21627;DHT22;10975;47.872;12.972;2022-11-06T11:21:18;10.00;99.90
21627;DHT22;10975;47.872;12.972;2022-11-06T11:23:46;10.00;99.90
21627;DHT22;10975;47.872;12.972;2022-11-06T11:26:30;10.10;99.90
21627;DHT22;10975;47.872;12.972;2022-11-06T11:28:58;10.20;99.90
21627;DHT22;10975;47.872;12.972;2022-11-06T11:31:29;10.20;99.90
21627;DHT22;10975;47.872;12.972;2022-11-06T11:33:57;10.20;99.90
21627;DHT22;10975;47.872;12.972;2022-11-06T11:36:25;10.30;99.90
21627;DHT22;10975;47.872;12.972;2022-11-06T11:38:51;10.20;99.90
21627;DHT22;10975;47.872;12.972;2022-11-06T11:43:55;10.20;99.90
21627;DHT22;10975;47.872;12.972;2022-11-06T11:46:22;10.20;99.90
21627;DHT22;10975;47.872;12.972;2022-11-06T11:48:53;10.20;99.90
21627;DHT22;10975;47.872;12.972;2022-11-06T11:56:29;10.20;99.90
21627;DHT22;10975;47.872;12.972;2022-11-06T11:59:21;10.20;99.90
21627;DHT22;10975;47.872;12.972;2022-11-06T12:01:48;10.20;99.90
21627;DHT22;10975;47.872;12.972;2022-11-06T12:06:58;10.30;99.90
21627;DHT22;10975;47.872;12.972;2022-11-06T12:09:26;10.30;99.90
21627;DHT22;10975;47.872;12.972;2022-11-06T12:11:54;10.30;99.90
21627;DHT22;10975;47.872;12.972;2022-11-06T12:14:34;10.30;99.90
21627;DHT22;10975;47.872;12.972;2022-11-06T12:17:03;10.30;99.90
21627;DHT22;10975;47.872;12.972;2022-11-06T12:19:31;10.40;99.90
21627;DHT22;10975;47.872;12.972;2022-11-06T12:22:00;10.50;99.90
21627;DHT22;10975;47.872;12.972;2022-11-06T12:24:34;10.60;99.90
21627;DHT22;10975;47.872;12.972;2022-11-06T12:27:25;10.60;99.90
21627;DHT22;10975;47.872;12.972;2022-11-06T12:29:50;10.70;99.90
21627;DHT22;10975;47.872;12.972;2022-11-06T12:40:19;11.30;99.90
21627;DHT22;10975;47.872;12.972;2022-11-06T12:42:54;11.50;99.90
21627;DHT22;10975;47.872;12.972;2022-11-06T12:45:23;11.50;99.90
21627;DHT22;10975;47.872;12.972;2022-11-06T12:47:56;11.60;99.90
21627;DHT22;10975;47.872;12.972;2022-11-06T12:55:32;11.30;99.90
21627;DHT22;10975;47.872;12.972;2022-11-06T13:00:28;11.10;99.90
21627;DHT22;10975;47.872;12.972;2022-11-06T13:05:54;10.80;99.90
21627;DHT22;10975;47.872;12.972;2022-11-06T13:13:35;10.60;99.90
21627;DHT22;10975;47.872;12.972;2022-11-06T13:18:43;10.60;99.90
21627;DHT22;10975;47.872;12.972;2022-11-06T13:24:11;10.50;99.90
21627;DHT22;10975;47.872;12.972;2022-11-06T13:26:45;10.50;99.90
21627;DHT22;10975;47.872;12.972;2022-11-06T13:29:13;10.40;99.90
21627;DHT22;10975;47.872;12.972;2022-11-06T13:31:43;10.40;99.90
21627;DHT22;10975;47.872;12.972;2022-11-06T13:34:23;10.30;99.90
21627;DHT22;10975;47.872;12.972;2022-11-06T13:36:52;10.20;99.90
21627;DHT22;10975;47.872;12.972;2022-11-06T13:39:23;10.10;99.90
21627;DHT22;10975;47.872;12.972;2022-11-06T13:41:51;10.00;99.90
21627;DHT22;10975;47.872;12.972;2022-11-06T13:44:19;10.00;99.90
21627;DHT22;10975;47.872;12.972;2022-11-06T13:49:40;9.90;99.90
21627;DHT22;10975;47.872;12.972;2022-11-06T13:52:12;9.90;99.90
21627;DHT22;10975;47.872;12.972;2022-11-06T13:54:53;9.80;99.90
21627;DHT22;10975;47.872;12.972;2022-11-06T14:00:50;9.80;99.90
21627;DHT22;10975;47.872;12.972;2022-11-06T14:08:05;9.70;99.90
21627;DHT22;10975;47.872;12.972;2022-11-06T14:10:34;9.70;99.90
21627;DHT22;10975;47.872;12.972;2022-11-06T14:13:02;9.70;99.90
21627;DHT22;10975;47.872;12.972;2022-11-06T14:15:34;9.70;99.90
21627;DHT22;10975;47.872;12.972;2022-11-06T14:18:03;9.60;99.90
21627;DHT22;10975;47.872;12.972;2022-11-06T14:25:54;9.50;99.90
21627;DHT22;10975;47.872;12.972;2022-11-06T14:28:32;9.50;99.90
21627;DHT22;10975;47.872;12.972;2022-11-06T14:30:59;9.50;99.90
21627;DHT22;10975;47.872;12.972;2022-11-06T14:38:50;9.40;99.90
21627;DHT22;10975;47.872;12.972;2022-11-06T14:44:03;9.30;99.90
21627;DHT22;10975;47.872;12.972;2022-11-06T14:46:31;9.20;99.90
21627;DHT22;10975;47.872;12.972;2022-11-06T14:49:06;9.20;99.90
21627;DHT22;10975;47.872;12.972;2022-11-06T14:51:33;9.10;99.90
21627;DHT22;10975;47.872;12.972;2022-11-06T14:54:19;9.10;99.90
21627;DHT22;10975;47.872;12.972;2022-11-06T14:56:51;9.10;99.90
21627;DHT22;10975;47.872;12.972;2022-11-06T14:59:34;9.00;99.90
21627;DHT22;10975;47.872;12.972;2022-11-06T15:02:11;9.00;99.90
21627;DHT22;10975;47.872;12.972;2022-11-06T15:04:47;8.90;99.90
21627;DHT22;10975;47.872;12.972;2022-11-06T15:07:26;9.00;99.90
21627;DHT22;10975;47.872;12.972;2022-11-06T15:15:29;8.80;99.90
21627;DHT22;10975;47.872;12.972;2022-11-06T15:17:56;8.80;99.90
21627;DHT22;10975;47.872;12.972;2022-11-06T15:20:27;8.80;99.90
21627;DHT22;10975;47.872;12.972;2022-11-06T15:23:06;8.70;99.90
21627;DHT22;10975;47.872;12.972;2022-11-06T15:25:35;8.60;99.90
21627;DHT22;10975;47.872;12.972;2022-11-06T15:28:05;8.50;99.90
21627;DHT22;10975;47.872;12.972;2022-11-06T15:30:38;8.50;99.90
21627;DHT22;10975;47.872;12.972;2022-11-06T15:33:08;8.40;99.90
21627;DHT22;10975;47.872;12.972;2022-11-06T15:35:37;8.30;99.90
21627;DHT22;10975;47.872;12.972;2022-11-06T15:38:05;8.30;99.90
21627;DHT22;10975;47.872;12.972;2022-11-06T15:40:33;8.20;99.90
21627;DHT22;10975;47.872;12.972;2022-11-06T15:43:01;8.10;99.90
21627;DHT22;10975;47.872;12.972;2022-11-06T15:45:31;8.10;99.90
21627;DHT22;10975;47.872;12.972;2022-11-06T15:47:58;8.10;99.90
21627;DHT22;10975;47.872;12.972;2022-11-06T15:50:27;8.00;99.90
21627;DHT22;10975;47.872;12.972;2022-11-06T15:53:08;7.90;99.90
21627;DHT22;10975;47.872;12.972;2022-11-06T15:55:35;7.90;99.90
21627;DHT22;10975;47.872;12.972;2022-11-06T16:00:50;7.80;99.90
21627;DHT22;10975;47.872;12.972;2022-11-06T16:03:18;7.70;99.90
21627;DHT22;10975;47.872;12.972;2022-11-06T16:05:45;7.70;99.90
21627;DHT22;10975;47.872;12.972;2022-11-06T16:08:13;7.60;99.90
21627;DHT22;10975;47.872;12.972;2022-11-06T16:10:40;7.60;99.90
21627;DHT22;10975;47.872;12.972;2022-11-06T16:13:13;7.60;99.90
21627;DHT22;10975;47.872;12.972;2022-11-06T16:20:46;7.50;99.90
21627;DHT22;10975;47.872;12.972;2022-11-06T16:23:14;7.40;99.90
21627;DHT22;10975;47.872;12.972;2022-11-06T16:25:42;7.40;99.90
21627;DHT22;10975;47.872;12.972;2022-11-06T16:28:19;7.40;99.90
21627;DHT22;10975;47.872;12.972;2022-11-06T16:30:46;7.30;99.90
21627;DHT22;10975;47.872;12.972;2022-11-06T16:33:18;7.30;99.90
21627;DHT22;10975;47.872;12.972;2022-11-06T16:35:46;7.20;99.90
21627;DHT22;10975;47.872;12.972;2022-11-06T16:38:27;7.10;99.90
21627;DHT22;10975;47.872;12.972;2022-11-06T16:41:10;7.10;99.90
21627;DHT22;10975;47.872;12.972;2022-11-06T16:43:37;7.00;99.90
21627;DHT22;10975;47.872;12.972;2022-11-06T16:46:05;6.90;99.90
21627;DHT22;10975;47.872;12.972;2022-11-06T16:51:05;6.90;99.90
21627;DHT22;10975;47.872;12.972;2022-11-06T16:53:42;6.90;99.90
21627;DHT22;10975;47.872;12.972;2022-11-06T16:56:11;6.80;99.90
21627;DHT22;10975;47.872;12.972;2022-11-06T16:58:45;6.70;99.90
21627;DHT22;10975;47.872;12.972;2022-11-06T17:01:12;6.70;99.90
21627;DHT22;10975;47.872;12.972;2022-11-06T17:03:48;6.60;99.90
21627;DHT22;10975;47.872;12.972;2022-11-06T17:06:25;6.60;99.90
21627;DHT22;10975;47.872;12.972;2022-11-06T17:08:55;6.50;99.90
21627;DHT22;10975;47.872;12.972;2022-11-06T17:11:22;6.40;99.90
21627;DHT22;10975;47.872;12.972;2022-11-06T17:13:49;6.40;99.90
21627;DHT22;10975;47.872;12.972;2022-11-06T17:16:24;6.40;99.90
21627;DHT22;10975;47.872;12.972;2022-11-06T17:18:51;6.30;99.90
21627;DHT22;10975;47.872;12.972;2022-11-06T17:21:22;6.20;99.90
21627;DHT22;10975;47.872;12.972;2022-11-06T17:23:49;6.20;99.90
21627;DHT22;10975;47.872;12.972;2022-11-06T17:26:18;6.20;99.90
21627;DHT22;10975;47.872;12.972;2022-11-06T17:28:45;6.10;99.90
21627;DHT22;10975;47.872;12.972;2022-11-06T17:31:12;6.10;99.90
21627;DHT22;10975;47.872;12.972;2022-11-06T17:33:40;6.10;99.90
21627;DHT22;10975;47.872;12.972;2022-11-06T17:36:09;6.00;99.90
21627;DHT22;10975;47.872;12.972;2022-11-06T17:38:38;6.00;99.90
21627;DHT22;10975;47.872;12.972;2022-11-06T17:41:05;6.00;99.90
21627;DHT22;10975;47.872;12.972;2022-11-06T17:43:31;6.00;99.90
21627;DHT22;10975;47.872;12.972;2022-11-06T17:45:58;5.90;99.90
21627;DHT22;10975;47.872;12.972;2022-11-06T17:48:25;5.90;99.90
21627;DHT22;10975;47.872;12.972;2022-11-06T17:50:53;5.90;99.90
21627;DHT22;10975;47.872;12.972;2022-11-06T17:53:38;5.80;99.90
21627;DHT22;10975;47.872;12.972;2022-11-06T17:56:05;5.80;99.90
21627;DHT22;10975;47.872;12.972;2022-11-06T17:58:32;5.80;99.90
21627;DHT22;10975;47.872;12.972;2022-11-06T18:01:03;5.70;99.90